sensor_id;sensor_type;location;lat;lon;timestamp;pressure;altitude;pressure_sealevel;temperature;humidity
19096;BME280;9680;52.520;13.332;2022-11-04T00:01:30;100205.94;;;9.59;79.83
19096;BME280;9680;52.520;13.332;2022-11-04T00:03:56;100199.72;;;9.64;79.54
19096;BME280;9680;52.520;13.332;2022-11-04T00:06:22;100203.88;;;9.68;79.65
19096;BME280;9680;52.520;13.332;2022-11-04T00:08:53;100197.69;;;9.70;79.57
19096;BME280;9680;52.520;13.332;2022-11-04T00:11:19;100194.94;;;9.73;79.40
19096;BME280;9680;52.520;13.332;2022-11-04T00:14:05;100199.19;;;9.76;79.49
19096;BME280;9680;52.520;13.332;2022-11-04T00:16:31;100192.16;;;9.78;79.63
19096;BME280;9680;52.520;13.332;2022-11-04T00:19:17;100192.16;;;9.78;79.64
19096;BME280;9680;52.520;13.332;2022-11-04T00:21:43;100194.69;;;9.80;79.29
19096;BME280;9680;52.520;13.332;2022-11-04T00:24:27;100193.78;;;9.81;79.79
19096;BME280;9680;52.520;13.332;2022-11-04T00:27:14;100205.88;;;9.82;79.44
19096;BME280;9680;52.520;13.332;2022-11-04T00:29:58;100192.06;;;9.80;79.24
19096;BME280;9680;52.520;13.332;2022-11-04T00:32:24;100192.16;;;9.78;79.81
19096;BME280;9680;52.520;13.332;2022-11-04T00:35:09;100191.38;;;9.76;79.64
19096;BME280;9680;52.520;13.332;2022-11-04T00:37:36;100184.50;;;9.75;79.97
19096;BME280;9680;52.520;13.332;2022-11-04T00:40:02;100181.94;;;9.73;79.81
19096;BME280;9680;52.520;13.332;2022-11-04T00:42:28;100179.41;;;9.72;80.14
19096;BME280;9680;52.520;13.332;2022-11-04T00:44:53;100182.16;;;9.69;79.99
19096;BME280;9680;52.520;13.332;2022-11-04T00:47:19;100176.22;;;9.65;80.06
19096;BME280;9680;52.520;13.332;2022-11-04T00:49:44;100172.97;;;9.60;80.31
19096;BME280;9680;52.520;13.332;2022-11-04T00:52:09;100182.75;;;9.55;80.54
19096;BME280;9680;52.520;13.332;2022-11-04T00:54:35;100176.03;;;9.49;80.88
19096;BME280;9680;52.520;13.332;2022-11-04T00:57:00;100177.94;;;9.45;80.97
19096;BME280;9680;52.520;13.332;2022-11-04T00:59:26;100169.41;;;9.42;81.37
19096;BME280;9680;52.520;13.332;2022-11-04T01:01:51;100167.84;;;9.38;81.45
19096;BME280;9680;52.520;13.332;2022-11-04T01:04:17;100162.72;;;9.36;81.60
19096;BME280;9680;52.520;13.332;2022-11-04T01:06:42;100155.88;;;9.33;81.74
19096;BME280;9680;52.520;13.332;2022-11-04T01:09:09;100162.84;;;9.33;81.89
19096;BME280;9680;52.520;13.332;2022-11-04T01:11:36;100155.25;;;9.28;82.16
19096;BME280;9680;52.520;13.332;2022-11-04T01:14:01;100147.56;;;9.25;82.20
19096;BME280;9680;52.520;13.332;2022-11-04T01:16:27;100159.78;;;9.23;82.50
19096;BME280;9680;52.520;13.332;2022-11-04T01:18:53;100150.31;;;9.22;82.70
19096;BME280;9680;52.520;13.332;2022-11-04T01:21:19;100144.31;;;9.20;82.75
19096;BME280;9680;52.520;13.332;2022-11-04T01:23:45;100150.44;;;9.19;83.07
19096;BME280;9680;52.520;13.332;2022-11-04T01:26:17;100145.34;;;9.16;83.27
19096;BME280;9680;52.520;13.332;2022-11-04T01:28:43;100135.94;;;9.13;83.49
19096;BME280;9680;52.520;13.332;2022-11-04T01:31:11;100136.84;;;9.12;83.60
19096;BME280;9680;52.520;13.332;2022-11-04T01:33:37;100135.94;;;9.13;83.51
19096;BME280;9680;52.520;13.332;2022-11-04T01:36:04;100138.47;;;9.15;83.81
19096;BME280;9680;52.520;13.332;2022-11-04T01:38:30;100142.81;;;9.14;84.08
19096;BME280;9680;52.520;13.332;2022-11-04T01:40:55;100142.69;;;9.17;83.91
19096;BME280;9680;52.520;13.332;2022-11-04T01:43:22;100141.00;;;9.16;83.89
19096;BME280;9680;52.520;13.332;2022-11-04T01:45:51;100140.94;;;9.18;83.87
19096;BME280;9680;52.520;13.332;2022-11-04T01:48:26;100143.47;;;9.20;84.07
19096;BME280;9680;52.520;13.332;2022-11-04T01:50:54;100147.69;;;9.22;84.08
19096;BME280;9680;52.520;13.332;2022-11-04T01:53:24;100151.09;;;9.24;84.25
19096;BME280;9680;52.520;13.332;2022-11-04T01:55:55;100143.34;;;9.23;84.02
19096;BME280;9680;52.520;13.332;2022-11-04T01:58:23;100150.16;;;9.25;84.15
19096;BME280;9680;52.520;13.332;2022-11-04T02:00:50;100136.41;;;9.23;84.10
19096;BME280;9680;52.520;13.332;2022-11-04T02:03:19;100138.88;;;9.26;84.17
19096;BME280;9680;52.520;13.332;2022-11-04T02:05:45;100143.03;;;9.30;84.43
19096;BME280;9680;52.520;13.332;2022-11-04T02:08:13;100131.59;;;9.35;84.29
19096;BME280;9680;52.520;13.332;2022-11-04T02:10:40;100128.72;;;9.41;84.27
19096;BME280;9680;52.520;13.332;2022-11-04T02:13:06;100120.75;;;9.45;84.25
19096;BME280;9680;52.520;13.332;2022-11-04T02:20:59;100110.97;;;9.51;84.16
19096;BME280;9680;52.520;13.332;2022-11-04T02:34:20;100110.53;;;9.41;83.87
19096;BME280;9680;52.520;13.332;2022-11-04T02:37:08;100092.59;;;9.35;84.27
19096;BME280;9680;52.520;13.332;2022-11-04T02:45:32;100102.78;;;9.18;84.54
19096;BME280;9680;52.520;13.332;2022-11-04T02:50:45;100088.38;;;9.11;84.64
19096;BME280;9680;52.520;13.332;2022-11-04T02:53:20;100090.28;;;9.08;85.00
19096;BME280;9680;52.520;13.332;2022-11-04T02:55:53;100088.59;;;9.07;85.14
19096;BME280;9680;52.520;13.332;2022-11-04T02:58:32;100091.31;;;9.03;85.59
19096;BME280;9680;52.520;13.332;2022-11-04T03:01:01;100079.22;;;9.02;85.60
19096;BME280;9680;52.520;13.332;2022-11-04T03:03:31;100088.63;;;9.05;85.69
19096;BME280;9680;52.520;13.332;2022-11-04T03:06:00;100074.59;;;9.09;85.71
19096;BME280;9680;52.520;13.332;2022-11-04T03:08:31;100084.03;;;9.12;86.26
19096;BME280;9680;52.520;13.332;2022-11-04T03:11:02;100091.63;;;9.16;86.17
19096;BME280;9680;52.520;13.332;2022-11-04T03:13:39;100100.06;;;9.22;85.97
19096;BME280;9680;52.520;13.332;2022-11-04T03:16:10;100091.03;;;9.30;85.93
19096;BME280;9680;52.520;13.332;2022-11-04T03:19:07;100085.44;;;9.40;85.73
19096;BME280;9680;52.520;13.332;2022-11-04T03:21:38;100085.94;;;9.48;85.39
19096;BME280;9680;52.520;13.332;2022-11-04T03:24:05;100083.94;;;9.55;85.12
19096;BME280;9680;52.520;13.332;2022-11-04T03:26:37;100081.19;;;9.58;84.86
19096;BME280;9680;52.520;13.332;2022-11-04T03:29:15;100079.31;;;9.61;84.70
19096;BME280;9680;52.520;13.332;2022-11-04T03:34:10;100078.25;;;9.66;84.40
19096;BME280;9680;52.520;13.332;2022-11-04T03:36:36;100087.63;;;9.70;84.32
19096;BME280;9680;52.520;13.332;2022-11-04T03:39:01;100107.50;;;9.71;84.22
19096;BME280;9680;52.520;13.332;2022-11-04T03:41:32;100134.28;;;9.73;84.56
19096;BME280;9680;52.520;13.332;2022-11-04T03:43:59;100124.66;;;9.75;84.20
19096;BME280;9680;52.520;13.332;2022-11-04T03:46:25;100121.16;;;9.76;84.08
19096;BME280;9680;52.520;13.332;2022-11-04T03:48:52;100129.59;;;9.81;84.13
19096;BME280;9680;52.520;13.332;2022-11-04T03:51:18;100126.00;;;9.84;84.32
19096;BME280;9680;52.520;13.332;2022-11-04T03:53:43;100118.06;;;9.87;84.16
19096;BME280;9680;52.520;13.332;2022-11-04T04:01:55;100113.72;;;9.87;83.94
19096;BME280;9680;52.520;13.332;2022-11-04T04:04:31;100110.19;;;9.88;84.11
19096;BME280;9680;52.520;13.332;2022-11-04T04:09:56;100104.72;;;9.95;83.64
19096;BME280;9680;52.520;13.332;2022-11-04T04:14:52;100105.69;;;9.92;83.60
19096;BME280;9680;52.520;13.332;2022-11-04T04:17:35;100118.78;;;9.90;83.67
19096;BME280;9680;52.520;13.332;2022-11-04T04:20:08;100121.38;;;9.90;83.91
19096;BME280;9680;52.520;13.332;2022-11-04T04:22:39;100125.81;;;9.88;83.93
19096;BME280;9680;52.520;13.332;2022-11-04T04:25:08;100131.00;;;9.88;83.69
19096;BME280;9680;52.520;13.332;2022-11-04T04:27:56;100117.84;;;9.91;83.70
19096;BME280;9680;52.520;13.332;2022-11-04T04:30:22;100120.31;;;9.95;84.05
19096;BME280;9680;52.520;13.332;2022-11-04T04:33:17;100113.38;;;9.95;84.05
19096;BME280;9680;52.520;13.332;2022-11-04T04:35:50;100108.22;;;9.94;83.83
19096;BME280;9680;52.520;13.332;2022-11-04T04:38:27;100099.50;;;9.95;83.94
19096;BME280;9680;52.520;13.332;2022-11-04T04:44:28;100096.72;;;9.99;83.58
19096;BME280;9680;52.520;13.332;2022-11-04T04:47:18;100087.28;;;9.97;83.36
19096;BME280;9680;52.520;13.332;2022-11-04T04:49:52;100082.94;;;9.97;83.51
19096;BME280;9680;52.520;13.332;2022-11-04T04:52:19;100093.19;;;10.00;83.81
19096;BME280;9680;52.520;13.332;2022-11-04T04:54:46;100091.41;;;10.01;83.65
19096;BME280;9680;52.520;13.332;2022-11-04T04:57:11;100108.66;;;10.03;83.83
19096;BME280;9680;52.520;13.332;2022-11-04T04:59:37;100118.06;;;10.06;83.51
19096;BME280;9680;52.520;13.332;2022-11-04T05:02:02;100111.91;;;10.09;83.86
19096;BME280;9680;52.520;13.332;2022-11-04T05:04:28;100111.75;;;10.12;83.54
19096;BME280;9680;52.520;13.332;2022-11-04T05:06:54;100113.44;;;10.13;83.48
19096;BME280;9680;52.520;13.332;2022-11-04T05:09:19;100105.53;;;10.14;83.50
19096;BME280;9680;52.520;13.332;2022-11-04T05:11:45;100119.41;;;10.15;83.34
19096;BME280;9680;52.520;13.332;2022-11-04T05:14:10;100115.03;;;10.15;83.38
19096;BME280;9680;52.520;13.332;2022-11-04T05:16:36;100119.31;;;10.16;83.59
19096;BME280;9680;52.520;13.332;2022-11-04T05:19:01;100127.09;;;10.18;83.40
19096;BME280;9680;52.520;13.332;2022-11-04T05:21:27;100130.47;;;10.20;83.32
19096;BME280;9680;52.520;13.332;2022-11-04T05:23:52;100125.09;;;10.23;83.52
19096;BME280;9680;52.520;13.332;2022-11-04T05:26:17;100115.53;;;10.24;83.40
19096;BME280;9680;52.520;13.332;2022-11-04T05:28:43;100131.22;;;10.22;83.20
19096;BME280;9680;52.520;13.332;2022-11-04T05:31:08;100124.34;;;10.21;83.29
19096;BME280;9680;52.520;13.332;2022-11-04T05:33:34;100133.69;;;10.25;83.22
19096;BME280;9680;52.520;13.332;2022-11-04T05:36:09;100137.00;;;10.29;83.38
19096;BME280;9680;52.520;13.332;2022-11-04T05:38:35;100135.94;;;10.33;83.07
19096;BME280;9680;52.520;13.332;2022-11-04T05:41:01;100138.56;;;10.33;83.07
19096;BME280;9680;52.520;13.332;2022-11-04T05:43:27;100154.19;;;10.33;83.43
19096;BME280;9680;52.520;13.332;2022-11-04T05:45:53;100148.97;;;10.33;83.56
19096;BME280;9680;52.520;13.332;2022-11-04T05:48:19;100148.06;;;10.34;83.54
19096;BME280;9680;52.520;13.332;2022-11-04T05:50:45;100156.84;;;10.31;83.65
19096;BME280;9680;52.520;13.332;2022-11-04T05:53:10;100162.13;;;10.30;83.73
19096;BME280;9680;52.520;13.332;2022-11-04T05:55:35;100162.13;;;10.30;84.09
19096;BME280;9680;52.520;13.332;2022-11-04T05:58:01;100159.44;;;10.31;83.98
19096;BME280;9680;52.520;13.332;2022-11-04T06:00:27;100168.03;;;10.33;84.26
19096;BME280;9680;52.520;13.332;2022-11-04T06:02:53;100155.88;;;10.34;84.06
19096;BME280;9680;52.520;13.332;2022-11-04T06:05:21;100173.22;;;10.33;84.31
19096;BME280;9680;52.520;13.332;2022-11-04T06:07:47;100165.50;;;10.32;84.26
19096;BME280;9680;52.520;13.332;2022-11-04T06:10:12;100165.50;;;10.32;84.56
19096;BME280;9680;52.520;13.332;2022-11-04T06:12:38;100172.44;;;10.31;84.54
19096;BME280;9680;52.520;13.332;2022-11-04T06:15:04;100176.84;;;10.31;84.77
19096;BME280;9680;52.520;13.332;2022-11-04T06:17:30;100181.94;;;10.32;85.06
19096;BME280;9680;52.520;13.332;2022-11-04T06:19:55;100192.22;;;10.35;84.87
19096;BME280;9680;52.520;13.332;2022-11-04T06:22:20;100189.56;;;10.37;85.06
19096;BME280;9680;52.520;13.332;2022-11-04T06:24:46;100194.56;;;10.42;85.00
19096;BME280;9680;52.520;13.332;2022-11-04T06:27:12;100196.97;;;10.46;84.93
19096;BME280;9680;52.520;13.332;2022-11-04T06:29:37;100194.16;;;10.51;85.07
19096;BME280;9680;52.520;13.332;2022-11-04T06:32:17;100185.41;;;10.52;84.86
19096;BME280;9680;52.520;13.332;2022-11-04T06:34:43;100191.34;;;10.56;85.20
19096;BME280;9680;52.520;13.332;2022-11-04T06:37:09;100199.94;;;10.58;85.05
19096;BME280;9680;52.520;13.332;2022-11-04T06:39:35;100212.84;;;10.59;84.97
19096;BME280;9680;52.520;13.332;2022-11-04T06:42:01;100211.13;;;10.60;85.11
19096;BME280;9680;52.520;13.332;2022-11-04T06:44:27;100208.56;;;10.58;85.37
19096;BME280;9680;52.520;13.332;2022-11-04T06:46:52;100212.81;;;10.61;85.43
19096;BME280;9680;52.520;13.332;2022-11-04T06:49:20;100216.19;;;10.63;85.28
19096;BME280;9680;52.520;13.332;2022-11-04T06:51:47;100221.09;;;10.69;85.80
19096;BME280;9680;52.520;13.332;2022-11-04T06:54:13;100219.13;;;10.74;85.36
19096;BME280;9680;52.520;13.332;2022-11-04T06:56:39;100228.56;;;10.77;85.28
19096;BME280;9680;52.520;13.332;2022-11-04T06:59:05;100228.34;;;10.82;85.21
19096;BME280;9680;52.520;13.332;2022-11-04T07:01:33;100231.81;;;10.82;85.11
19096;BME280;9680;52.520;13.332;2022-11-04T07:04:00;100233.56;;;10.82;85.66
19096;BME280;9680;52.520;13.332;2022-11-04T07:06:27;100231.81;;;10.82;85.35
19096;BME280;9680;52.520;13.332;2022-11-04T07:08:56;100234.41;;;10.82;85.70
19096;BME280;9680;52.520;13.332;2022-11-04T07:11:22;100243.97;;;10.82;85.67
19096;BME280;9680;52.520;13.332;2022-11-04T07:13:49;100235.31;;;10.81;85.58
19096;BME280;9680;52.520;13.332;2022-11-04T07:16:15;100235.31;;;10.81;86.27
19096;BME280;9680;52.520;13.332;2022-11-04T07:18:41;100237.84;;;10.83;86.35
19096;BME280;9680;52.520;13.332;2022-11-04T07:21:07;100235.31;;;10.81;86.72
19096;BME280;9680;52.520;13.332;2022-11-04T07:23:32;100230.25;;;10.78;87.02
19096;BME280;9680;52.520;13.332;2022-11-04T07:26:00;100224.28;;;10.76;87.16
19096;BME280;9680;52.520;13.332;2022-11-04T07:28:25;100228.63;;;10.75;87.88
19096;BME280;9680;52.520;13.332;2022-11-04T07:30:51;100228.44;;;10.80;88.44
19096;BME280;9680;52.520;13.332;2022-11-04T07:33:16;100233.19;;;10.89;89.51
19096;BME280;9680;52.520;13.332;2022-11-04T07:35:42;100230.25;;;10.97;88.75
19096;BME280;9680;52.520;13.332;2022-11-04T07:38:09;100228.72;;;11.11;89.38
19096;BME280;9680;52.520;13.332;2022-11-04T07:40:35;100227.41;;;11.19;88.88
19096;BME280;9680;52.520;13.332;2022-11-04T07:43:00;100235.66;;;11.29;88.78
19096;BME280;9680;52.520;13.332;2022-11-04T07:45:34;100227.47;;;11.37;88.19
19096;BME280;9680;52.520;13.332;2022-11-04T07:48:00;100228.22;;;11.39;88.15
19096;BME280;9680;52.520;13.332;2022-11-04T07:50:25;100226.44;;;11.40;88.26
19096;BME280;9680;52.520;13.332;2022-11-04T07:52:51;100221.84;;;11.45;88.43
19096;BME280;9680;52.520;13.332;2022-11-04T07:55:17;100225.00;;;11.51;88.78
19096;BME280;9680;52.520;13.332;2022-11-04T07:57:44;100222.00;;;11.59;88.35
19096;BME280;9680;52.520;13.332;2022-11-04T08:00:10;100212.69;;;11.71;88.04
19096;BME280;9680;52.520;13.332;2022-11-04T08:02:37;100214.06;;;11.78;88.30
19096;BME280;9680;52.520;13.332;2022-11-04T08:05:03;100204.69;;;11.92;87.68
19096;BME280;9680;52.520;13.332;2022-11-04T08:07:31;100211.06;;;12.04;87.63
19096;BME280;9680;52.520;13.332;2022-11-04T08:09:56;100208.22;;;12.08;87.07
19096;BME280;9680;52.520;13.332;2022-11-04T08:12:22;100208.88;;;12.12;86.97
19096;BME280;9680;52.520;13.332;2022-11-04T08:14:50;100208.56;;;12.18;87.00
19096;BME280;9680;52.520;13.332;2022-11-04T08:17:18;100202.78;;;12.29;87.08
19096;BME280;9680;52.520;13.332;2022-11-04T08:19:44;100203.91;;;12.41;86.96
19096;BME280;9680;52.520;13.332;2022-11-04T08:22:10;100212.91;;;12.51;86.83
19096;BME280;9680;52.520;13.332;2022-11-04T08:24:35;100225.81;;;12.55;86.27
19096;BME280;9680;52.520;13.332;2022-11-04T08:27:04;100233.72;;;12.53;86.16
19096;BME280;9680;52.520;13.332;2022-11-04T08:29:32;100230.28;;;12.52;86.10
19096;BME280;9680;52.520;13.332;2022-11-04T08:31:57;100231.19;;;12.51;86.14
19096;BME280;9680;52.520;13.332;2022-11-04T08:34:23;100226.22;;;12.47;86.10
19096;BME280;9680;52.520;13.332;2022-11-04T08:36:48;100225.28;;;12.48;86.02
19096;BME280;9680;52.520;13.332;2022-11-04T08:39:14;100233.13;;;12.48;86.36
19096;BME280;9680;52.520;13.332;2022-11-04T08:41:41;100241.06;;;12.46;86.39
19096;BME280;9680;52.520;13.332;2022-11-04T08:44:08;100248.78;;;12.48;86.74
19096;BME280;9680;52.520;13.332;2022-11-04T08:46:36;100247.88;;;12.49;86.85
19096;BME280;9680;52.520;13.332;2022-11-04T08:51:42;100253.53;;;12.57;87.05
19096;BME280;9680;52.520;13.332;2022-11-04T08:54:09;100251.94;;;12.55;86.94
19096;BME280;9680;52.520;13.332;2022-11-04T08:56:37;100251.25;;;12.51;86.79
19096;BME280;9680;52.520;13.332;2022-11-04T08:59:03;100251.50;;;12.46;86.65
19096;BME280;9680;52.520;13.332;2022-11-04T09:01:32;100255.88;;;12.46;87.20
19096;BME280;9680;52.520;13.332;2022-11-04T09:03:58;100258.59;;;12.44;87.03
19096;BME280;9680;52.520;13.332;2022-11-04T09:06:31;100252.22;;;12.32;86.93
19096;BME280;9680;52.520;13.332;2022-11-04T09:08:58;100247.34;;;12.26;87.11
19096;BME280;9680;52.520;13.332;2022-11-04T09:11:32;100246.03;;;12.17;87.09
19096;BME280;9680;52.520;13.332;2022-11-04T09:13:59;100229.28;;;12.05;87.58
19096;BME280;9680;52.520;13.332;2022-11-04T09:16:25;100227.88;;;11.98;87.97
19096;BME280;9680;52.520;13.332;2022-11-04T09:18:51;100221.19;;;11.92;87.98
19096;BME280;9680;52.520;13.332;2022-11-04T09:21:17;100218.91;;;11.86;88.64
19096;BME280;9680;52.520;13.332;2022-11-04T09:23:42;100216.63;;;11.80;89.02
19096;BME280;9680;52.520;13.332;2022-11-04T09:26:11;100206.50;;;11.74;88.96
19096;BME280;9680;52.520;13.332;2022-11-04T09:28:37;100207.25;;;11.76;89.65
19096;BME280;9680;52.520;13.332;2022-11-04T09:31:04;100216.31;;;11.86;89.70
19096;BME280;9680;52.520;13.332;2022-11-04T09:33:31;100221.44;;;11.88;89.03
19096;BME280;9680;52.520;13.332;2022-11-04T09:35:57;100212.50;;;11.92;89.30
19096;BME280;9680;52.520;13.332;2022-11-04T09:38:24;100212.13;;;12.00;89.02
19096;BME280;9680;52.520;13.332;2022-11-04T09:40:50;100206.44;;;12.09;89.19
19096;BME280;9680;52.520;13.332;2022-11-04T09:44:01;100210.75;;;12.10;88.75
19096;BME280;9680;52.520;13.332;2022-11-04T09:46:10;100213.34;;;12.10;88.49
19096;BME280;9680;52.520;13.332;2022-11-04T09:48:52;100213.63;;;12.21;89.15
19096;BME280;9680;52.520;13.332;2022-11-04T09:51:21;100209.84;;;12.27;88.36
19096;BME280;9680;52.520;13.332;2022-11-04T09:53:51;100217.75;;;12.26;87.84
19096;BME280;9680;52.520;13.332;2022-11-04T09:56:21;100218.63;;;12.26;88.03
19096;BME280;9680;52.520;13.332;2022-11-04T09:58:48;100208.16;;;12.26;87.90
19096;BME280;9680;52.520;13.332;2022-11-04T10:22:55;100253.38;;;11.93;86.66
19096;BME280;9680;52.520;13.332;2022-11-04T10:25:27;100247.28;;;11.92;86.81
19096;BME280;9680;52.520;13.332;2022-11-04T10:27:55;100256.22;;;11.88;86.31
19096;BME280;9680;52.520;13.332;2022-11-04T10:30:24;100268.66;;;11.83;86.95
19096;BME280;9680;52.520;13.332;2022-11-04T10:36:00;100270.63;;;11.95;87.78
19096;BME280;9680;52.520;13.332;2022-11-04T10:38:45;100293.69;;;12.05;87.61
19096;BME280;9680;52.520;13.332;2022-11-04T10:41:36;100300.44;;;12.09;87.31
19096;BME280;9680;52.520;13.332;2022-11-04T10:44:25;100288.91;;;12.13;86.23
19096;BME280;9680;52.520;13.332;2022-11-04T10:47:03;100293.97;;;11.99;85.49
19096;BME280;9680;52.520;13.332;2022-11-04T10:52:23;100278.63;;;11.92;85.59
19096;BME280;9680;52.520;13.332;2022-11-04T10:54:49;100266.03;;;11.83;85.63
19096;BME280;9680;52.520;13.332;2022-11-04T10:57:20;100260.22;;;11.78;85.93
19096;BME280;9680;52.520;13.332;2022-11-04T11:02:12;100276.66;;;11.62;85.87
19096;BME280;9680;52.520;13.332;2022-11-04T11:04:38;100291.38;;;11.63;86.73
19096;BME280;9680;52.520;13.332;2022-11-04T11:07:12;100302.66;;;11.64;86.71
19096;BME280;9680;52.520;13.332;2022-11-04T11:14:40;100309.94;;;11.75;87.00
19096;BME280;9680;52.520;13.332;2022-11-04T11:17:39;100314.47;;;11.71;86.44
19096;BME280;9680;52.520;13.332;2022-11-04T11:20:21;100321.06;;;11.78;86.21
19096;BME280;9680;52.520;13.332;2022-11-04T11:22:48;100326.91;;;11.84;86.04
19096;BME280;9680;52.520;13.332;2022-11-04T11:25:35;100327.59;;;11.87;85.89
19096;BME280;9680;52.520;13.332;2022-11-04T11:28:05;100331.44;;;11.98;85.58
19096;BME280;9680;52.520;13.332;2022-11-04T11:33:19;100348.75;;;12.18;85.23
19096;BME280;9680;52.520;13.332;2022-11-04T11:35:50;100347.72;;;12.20;84.50
19096;BME280;9680;52.520;13.332;2022-11-04T11:38:22;100353.81;;;12.21;84.10
19096;BME280;9680;52.520;13.332;2022-11-04T11:40:50;100355.72;;;12.17;83.63
19096;BME280;9680;52.520;13.332;2022-11-04T11:43:24;100354.28;;;12.12;83.34
19096;BME280;9680;52.520;13.332;2022-11-04T11:45:50;100361.19;;;12.13;83.35
19096;BME280;9680;52.520;13.332;2022-11-04T11:48:31;100354.75;;;12.02;82.26
19096;BME280;9680;52.520;13.332;2022-11-04T11:50:57;100348.88;;;11.97;82.45
19096;BME280;9680;52.520;13.332;2022-11-04T11:53:25;100344.78;;;11.91;83.08
19096;BME280;9680;52.520;13.332;2022-11-04T11:58:40;100346.41;;;11.94;83.19
19096;BME280;9680;52.520;13.332;2022-11-04T12:03:43;100339.41;;;11.94;82.81
19096;BME280;9680;52.520;13.332;2022-11-04T12:06:23;100342.56;;;11.84;82.89
19096;BME280;9680;52.520;13.332;2022-11-04T12:12:01;100341.25;;;11.75;83.65
19096;BME280;9680;52.520;13.332;2022-11-04T12:30:44;100331.75;;;11.91;82.94
19096;BME280;9680;52.520;13.332;2022-11-04T12:36:36;100338.81;;;11.89;82.39
19096;BME280;9680;52.520;13.332;2022-11-04T12:39:23;100334.66;;;11.85;82.66
19096;BME280;9680;52.520;13.332;2022-11-04T12:42:20;100338.41;;;11.79;82.47
19096;BME280;9680;52.520;13.332;2022-11-04T12:45:11;100353.25;;;11.79;82.68
19096;BME280;9680;52.520;13.332;2022-11-04T12:47:44;100342.66;;;11.82;83.13
19096;BME280;9680;52.520;13.332;2022-11-04T12:56:05;100350.06;;;11.72;82.30
19096;BME280;9680;52.520;13.332;2022-11-04T12:58:47;100343.56;;;11.63;82.84
19096;BME280;9680;52.520;13.332;2022-11-04T13:01:25;100349.59;;;11.64;82.93
19096;BME280;9680;52.520;13.332;2022-11-04T13:04:12;100350.72;;;11.58;82.76
19096;BME280;9680;52.520;13.332;2022-11-04T13:06:46;100351.66;;;11.57;82.95
19096;BME280;9680;52.520;13.332;2022-11-04T13:09:17;100344.69;;;11.58;83.33
19096;BME280;9680;52.520;13.332;2022-11-04T13:11:55;100355.03;;;11.59;83.27
19096;BME280;9680;52.520;13.332;2022-11-04T13:14:26;100357.63;;;11.59;83.36
19096;BME280;9680;52.520;13.332;2022-11-04T13:16:57;100367.88;;;11.64;83.15
19096;BME280;9680;52.520;13.332;2022-11-04T13:19:28;100362.59;;;11.65;83.57
19096;BME280;9680;52.520;13.332;2022-11-04T13:21:57;100364.97;;;11.70;83.65
19096;BME280;9680;52.520;13.332;2022-11-04T13:24:34;100371.72;;;11.74;83.51
19096;BME280;9680;52.520;13.332;2022-11-04T13:27:09;100366.59;;;11.73;83.31
19096;BME280;9680;52.520;13.332;2022-11-04T13:29:38;100370.94;;;11.72;83.13
19096;BME280;9680;52.520;13.332;2022-11-04T13:32:14;100372.63;;;11.73;83.19
19096;BME280;9680;52.520;13.332;2022-11-04T13:35:09;100378.63;;;11.75;83.34
19096;BME280;9680;52.520;13.332;2022-11-04T13:37:46;100376.09;;;11.74;83.08
19096;BME280;9680;52.520;13.332;2022-11-04T13:40:21;100374.63;;;11.68;82.87
19096;BME280;9680;52.520;13.332;2022-11-04T13:43:17;100374.78;;;11.65;82.95
19096;BME280;9680;52.520;13.332;2022-11-04T13:51:45;100369.84;;;11.59;83.79
19096;BME280;9680;52.520;13.332;2022-11-04T13:54:30;100377.84;;;11.56;83.89
19096;BME280;9680;52.520;13.332;2022-11-04T13:57:16;100373.75;;;11.50;83.92
19096;BME280;9680;52.520;13.332;2022-11-04T14:02:47;100368.75;;;11.45;84.69
19096;BME280;9680;52.520;13.332;2022-11-04T14:08:14;100363.94;;;11.55;84.90
19096;BME280;9680;52.520;13.332;2022-11-04T14:16:36;100375.81;;;11.80;84.89
19096;BME280;9680;52.520;13.332;2022-11-04T14:22:13;100382.28;;;12.08;84.39
19096;BME280;9680;52.520;13.332;2022-11-04T14:24:40;100376.84;;;12.13;84.12
19096;BME280;9680;52.520;13.332;2022-11-04T14:27:22;100369.69;;;12.16;83.74
19096;BME280;9680;52.520;13.332;2022-11-04T14:29:50;100374.00;;;12.17;83.09
19096;BME280;9680;52.520;13.332;2022-11-04T14:32:26;100375.69;;;12.18;83.30
19096;BME280;9680;52.520;13.332;2022-11-04T14:34:59;100379.38;;;12.14;83.68
19096;BME280;9680;52.520;13.332;2022-11-04T14:37:32;100383.66;;;12.15;83.58
19096;BME280;9680;52.520;13.332;2022-11-04T14:39:59;100386.44;;;12.12;83.50
19096;BME280;9680;52.520;13.332;2022-11-04T14:42:44;100381.69;;;12.03;83.12
19096;BME280;9680;52.520;13.332;2022-11-04T14:45:22;100385.78;;;11.89;83.26
19096;BME280;9680;52.520;13.332;2022-11-04T14:48:08;100385.16;;;11.84;83.37
19096;BME280;9680;52.520;13.332;2022-11-04T14:50:41;100387.47;;;11.73;83.32
19096;BME280;9680;52.520;13.332;2022-11-04T14:53:09;100391.91;;;11.71;83.80
19096;BME280;9680;52.520;13.332;2022-11-04T14:55:39;100392.06;;;11.68;83.71
19096;BME280;9680;52.520;13.332;2022-11-04T14:58:24;100398.41;;;11.62;84.04
19096;BME280;9680;52.520;13.332;2022-11-04T15:03:23;100394.16;;;11.59;83.95
19096;BME280;9680;52.520;13.332;2022-11-04T15:05:52;100405.75;;;11.54;83.82
19096;BME280;9680;52.520;13.332;2022-11-04T15:08:34;100403.34;;;11.49;84.24
19096;BME280;9680;52.520;13.332;2022-11-04T15:11:10;100417.44;;;11.45;84.38
19096;BME280;9680;52.520;13.332;2022-11-04T15:13:38;100408.84;;;11.43;84.55
19096;BME280;9680;52.520;13.332;2022-11-04T15:16:24;100410.53;;;11.44;84.94
19096;BME280;9680;52.520;13.332;2022-11-04T15:18:53;100415.75;;;11.44;84.61
19096;BME280;9680;52.520;13.332;2022-11-04T15:21:19;100412.38;;;11.42;85.01
19096;BME280;9680;52.520;13.332;2022-11-04T15:23:47;100416.91;;;11.38;84.53
19096;BME280;9680;52.520;13.332;2022-11-04T15:26:22;100407.69;;;11.31;84.62
19096;BME280;9680;52.520;13.332;2022-11-04T15:28:49;100409.38;;;11.32;84.82